EWR weather

Newark Liberty International Airport
Newark, New Jersey, United States

Public forecast

Using degrees Fahrenheit for public forecast. Weather courtesy of forecast.io.

METAR (pilot weather report)

Retrieved 2017/05/30 09:51 UTC (54 minutes ago):

KEWR 300951Z 15006KT 8SM -DZ OVC007 13/12 A3015 RMK AO2 SLP209 CIG 005V009 P0000 T01330122 $

TAF (pilot weather forecast)

Retrieved 2017/05/30 06:48 UTC (4 hours ago):

TAF KEWR 300547Z 3006/3112 VRB05KT P6SM BKN008 OVC015 TEMPO 3010/3014 6SM BR FM301700 13007KT 5SM BR SCT007 BKN015 FM302300 VRB04KT 4SM -DZ BR OVC007 FM310700 VRB04KT 4SM -DZ BR OVC004